DLH413 KEWR-EDDM
Flight info
| Callsign | DLH413 |
|---|---|
| Flight time | N/A |
| Altitude | 37000 |
| Route | MERIT DCT HFD DCT PUT DCT WITCH DCT ALLEX N565B TUDEP/M083F390 NATX GISTI/N0474F390 DCT UNBEG DCT TIPUR DCT BAKUR DCT OKSAW DCT KONAN DCT KOK UL607 FERDI DCT REMBA UL607 MATUG DCT MOVUM T109 HAREM/N0486F350 T104 ELMOX/N0451F270 T104 ROKIL ROKIL1A |
| Aircraft | A346/H-SDE2E3FGHIJ3J4J5M1RWXY/LB1D1 |
Departure
| Time | 2026-04-21 20:56 |
|---|---|
| Airport | Newark Liberty International Airport (KEWR) |
Arrival
| Time | N/A |
|---|---|
| Airport | Munich Airport (EDDM) |
| Time | Latitude | Longitude | Altitude | Speed | Heading |
|---|---|---|---|---|---|
| 2026-04-21 20:31 | 40.69133 | -74.17358 | 29 ft | 0 kts | 322° |
| 2026-04-21 20:45 | 40.69138 | -74.17364 | 30 ft | 4 kts | 321° |
| 2026-04-21 20:45 | 40.69142 | -74.17367 | 30 ft | 3 kts | 321° |
| 2026-04-21 20:45 | 40.69124 | -74.17347 | 30 ft | 4 kts | 330° |
| 2026-04-21 20:46 | 40.69105 | -74.17341 | 29 ft | 4 kts | 351° |
| 2026-04-21 20:46 | 40.69080 | -74.17337 | 30 ft | 2 kts | 351° |
| 2026-04-21 20:46 | 40.69079 | -74.17336 | 29 ft | 0 kts | 351° |
| 2026-04-21 20:51 | 40.69080 | -74.17337 | 30 ft | 1 kts | 351° |
| 2026-04-21 20:51 | 40.69085 | -74.17337 | 28 ft | 0 kts | 9° |
| 2026-04-21 20:51 | 40.69088 | -74.17335 | 29 ft | 1 kts | 14° |
| 2026-04-21 20:51 | 40.69099 | -74.17327 | 29 ft | 3 kts | 37° |
| 2026-04-21 20:52 | 40.69121 | -74.17293 | 29 ft | 7 kts | 60° |
| 2026-04-21 20:52 | 40.69135 | -74.17221 | 30 ft | 10 kts | 86° |
| 2026-04-21 20:52 | 40.69149 | -74.17119 | 30 ft | 13 kts | 58° |
| 2026-04-21 20:52 | 40.69222 | -74.17035 | 30 ft | 15 kts | 26° |
| 2026-04-21 20:53 | 40.69330 | -74.16967 | 30 ft | 19 kts | 26° |
| 2026-04-21 20:53 | 40.69456 | -74.16887 | 31 ft | 21 kts | 25° |
| 2026-04-21 20:53 | 40.69597 | -74.16798 | 30 ft | 24 kts | 25° |
| 2026-04-21 20:53 | 40.69754 | -74.16698 | 29 ft | 26 kts | 26° |
| 2026-04-21 20:54 | 40.69896 | -74.16608 | 28 ft | 20 kts | 26° |
| 2026-04-21 20:54 | 40.70027 | -74.16519 | 28 ft | 20 kts | 42° |
| 2026-04-21 20:54 | 40.70004 | -74.16389 | 27 ft | 16 kts | 177° |
| 2026-04-21 20:54 | 40.69934 | -74.16424 | 26 ft | 0 kts | 204° |
| 2026-04-21 20:55 | 40.69905 | -74.16441 | 28 ft | 23 kts | 204° |
| 2026-04-21 20:55 | 40.69561 | -74.16651 | 32 ft | 84 kts | 206° |
| 2026-04-21 20:55 | 40.68860 | -74.17088 | 32 ft | 137 kts | 206° |
| 2026-04-21 20:55 | 40.67870 | -74.17736 | 99 ft | 174 kts | 203° |
| 2026-04-21 20:56 | 40.66790 | -74.18481 | 638 ft | 176 kts | 204° |
| 2026-04-21 20:56 | 40.65682 | -74.19211 | 1255 ft | 178 kts | 206° |
| 2026-04-21 20:56 | 40.64526 | -74.19822 | 1908 ft | 178 kts | 188° |
| 2026-04-21 20:56 | 40.63332 | -74.19514 | 2491 ft | 179 kts | 152° |
| 2026-04-21 20:57 | 40.62402 | -74.18331 | 2871 ft | 196 kts | 124° |
| 2026-04-21 20:57 | 40.61964 | -74.16478 | 3191 ft | 216 kts | 92° |
| 2026-04-21 20:57 | 40.62331 | -74.14628 | 3464 ft | 232 kts | 58° |
| 2026-04-21 20:57 | 40.63608 | -74.13209 | 3723 ft | 248 kts | 16° |
| 2026-04-21 20:58 | 40.65354 | -74.13120 | 4084 ft | 259 kts | 340° |
| 2026-04-21 20:58 | 40.66990 | -74.14241 | 4769 ft | 261 kts | 328° |
| 2026-04-21 20:58 | 40.68732 | -74.14940 | 5530 ft | 269 kts | 360° |
| 2026-04-21 20:58 | 40.70507 | -74.14196 | 6414 ft | 274 kts | 34° |
| 2026-04-21 20:59 | 40.71773 | -74.12270 | 7326 ft | 278 kts | 53° |
| 2026-04-21 20:59 | 40.72844 | -74.10058 | 8077 ft | 283 kts | 51° |
| 2026-04-21 20:59 | 40.73983 | -74.07887 | 8827 ft | 287 kts | 47° |
| 2026-04-21 20:59 | 40.75220 | -74.05769 | 9667 ft | 289 kts | 43° |
| 2026-04-21 21:00 | 40.76427 | -74.03847 | 10378 ft | 292 kts | 41° |
| 2026-04-21 21:00 | 40.77808 | -74.01760 | 10872 ft | 306 kts | 40° |
| 2026-04-21 21:00 | 40.79275 | -73.99611 | 11229 ft | 322 kts | 39° |
| 2026-04-21 21:00 | 40.80859 | -73.97324 | 11594 ft | 340 kts | 40° |
| 2026-04-21 21:01 | 40.82511 | -73.94946 | 11913 ft | 358 kts | 40° |
| 2026-04-21 21:01 | 40.84245 | -73.92447 | 12257 ft | 374 kts | 40° |
| 2026-04-21 21:01 | 40.86028 | -73.89870 | 12898 ft | 381 kts | 40° |
| 2026-04-21 21:01 | 40.87829 | -73.87260 | 13709 ft | 384 kts | 40° |
| 2026-04-21 21:02 | 40.89653 | -73.84621 | 14449 ft | 388 kts | 40° |
| 2026-04-21 21:02 | 40.91510 | -73.81937 | 15145 ft | 391 kts | 40° |
| 2026-04-21 21:02 | 40.93387 | -73.79224 | 15837 ft | 394 kts | 40° |
| 2026-04-21 21:02 | 40.95250 | -73.76531 | 16511 ft | 398 kts | 40° |
| 2026-04-21 21:03 | 40.97120 | -73.73825 | 17195 ft | 401 kts | 40° |
| 2026-04-21 21:03 | 40.99021 | -73.71073 | 17880 ft | 405 kts | 40° |
| 2026-04-21 21:03 | 41.00941 | -73.68289 | 18566 ft | 408 kts | 40° |
| 2026-04-21 21:03 | 41.02883 | -73.65472 | 19160 ft | 412 kts | 40° |
| 2026-04-21 21:04 | 41.04737 | -73.62774 | 19713 ft | 415 kts | 39° |
| 2026-04-21 21:04 | 41.06675 | -73.59963 | 20268 ft | 419 kts | 39° |
| 2026-04-21 21:04 | 41.08715 | -73.57001 | 20863 ft | 423 kts | 39° |
| 2026-04-21 21:04 | 41.10696 | -73.54121 | 21413 ft | 426 kts | 39° |
| 2026-04-21 21:05 | 41.12701 | -73.51202 | 21984 ft | 429 kts | 39° |
| 2026-04-21 21:05 | 41.14720 | -73.48257 | 22557 ft | 432 kts | 39° |
| 2026-04-21 21:05 | 41.16790 | -73.45234 | 23119 ft | 436 kts | 39° |
| 2026-04-21 21:05 | 41.18851 | -73.42221 | 23654 ft | 440 kts | 39° |
| 2026-04-21 21:06 | 41.20936 | -73.39168 | 24152 ft | 443 kts | 39° |
| 2026-04-21 21:06 | 41.23028 | -73.36102 | 24588 ft | 446 kts | 39° |
| 2026-04-21 21:06 | 41.25138 | -73.33009 | 25056 ft | 449 kts | 39° |
| 2026-04-21 21:06 | 41.27268 | -73.29882 | 25546 ft | 451 kts | 39° |
| 2026-04-21 21:07 | 41.29362 | -73.26802 | 26035 ft | 453 kts | 39° |
| 2026-04-21 21:07 | 41.31475 | -73.23687 | 26548 ft | 454 kts | 39° |
| 2026-04-21 21:07 | 41.33611 | -73.20540 | 26961 ft | 457 kts | 39° |
| 2026-04-21 21:07 | 41.35761 | -73.17312 | 27385 ft | 462 kts | 41° |
| 2026-04-21 21:08 | 41.37789 | -73.13923 | 27836 ft | 469 kts | 44° |
| 2026-04-21 21:08 | 41.39687 | -73.10316 | 28316 ft | 476 kts | 48° |
| 2026-04-21 21:08 | 41.41446 | -73.06532 | 28733 ft | 482 kts | 50° |
| 2026-04-21 21:08 | 41.43181 | -73.02623 | 29241 ft | 482 kts | 51° |
| 2026-04-21 21:09 | 41.44849 | -72.98818 | 29897 ft | 480 kts | 51° |
| 2026-04-21 21:09 | 41.46547 | -72.94936 | 30563 ft | 477 kts | 51° |
| 2026-04-21 21:09 | 41.48219 | -72.91106 | 31124 ft | 475 kts | 50° |
| 2026-04-21 21:09 | 41.49892 | -72.87290 | 31650 ft | 472 kts | 50° |
| 2026-04-21 21:10 | 41.51549 | -72.83518 | 32177 ft | 470 kts | 50° |
| 2026-04-21 21:10 | 41.53206 | -72.79746 | 32689 ft | 468 kts | 50° |
| 2026-04-21 21:10 | 41.54850 | -72.75999 | 33184 ft | 466 kts | 50° |
| 2026-04-21 21:10 | 41.56487 | -72.72261 | 33658 ft | 465 kts | 50° |
| 2026-04-21 21:11 | 41.58094 | -72.68586 | 34138 ft | 463 kts | 50° |
| 2026-04-21 21:11 | 41.59717 | -72.64868 | 34555 ft | 462 kts | 50° |
| 2026-04-21 21:11 | 41.61336 | -72.61158 | 34912 ft | 462 kts | 50° |
| 2026-04-21 21:11 | 41.62957 | -72.57442 | 35225 ft | 463 kts | 51° |
| 2026-04-21 21:12 | 41.64582 | -72.53723 | 35550 ft | 462 kts | 50° |
| 2026-04-21 21:12 | 41.66250 | -72.50008 | 35820 ft | 463 kts | 50° |
| 2026-04-21 21:12 | 41.67927 | -72.46311 | 36042 ft | 466 kts | 50° |
| 2026-04-21 21:12 | 41.69666 | -72.42478 | 36228 ft | 469 kts | 50° |
| 2026-04-21 21:13 | 41.71367 | -72.38716 | 36438 ft | 471 kts | 51° |
| 2026-04-21 21:13 | 41.73067 | -72.34944 | 36653 ft | 473 kts | 51° |
| 2026-04-21 21:13 | 41.74769 | -72.31157 | 36870 ft | 475 kts | 51° |
| 2026-04-21 21:13 | 41.76476 | -72.27351 | 37078 ft | 477 kts | 51° |
| 2026-04-21 21:14 | 41.78185 | -72.23534 | 37274 ft | 478 kts | 51° |
| 2026-04-21 21:14 | 41.79897 | -72.19701 | 37280 ft | 479 kts | 51° |
| 2026-04-21 21:14 | 41.83343 | -72.11971 | 37297 ft | 479 kts | 52° |
| 2026-04-21 21:15 | 41.86750 | -72.04310 | 37291 ft | 480 kts | 52° |
| 2026-04-21 21:15 | 41.90165 | -71.96608 | 37294 ft | 480 kts | 52° |
| 2026-04-21 21:16 | 41.93699 | -71.89023 | 37304 ft | 476 kts | 47° |
| 2026-04-21 21:16 | 41.97727 | -71.82019 | 37318 ft | 470 kts | 41° |
| 2026-04-21 21:17 | 42.15527 | -71.58274 | 37298 ft | 465 kts | 37° |
| 2026-04-21 21:17 | 42.44309 | -71.20184 | 37309 ft | 466 kts | 37° |
| 2026-04-21 21:18 | 42.71786 | -70.80852 | 37323 ft | 483 kts | 49° |
| 2026-04-21 21:18 | 42.93907 | -70.33894 | 37329 ft | 489 kts | 50° |
| 2026-04-21 21:19 | 43.16006 | -69.86329 | 37352 ft | 489 kts | 51° |
| 2026-04-21 21:19 | 43.37555 | -69.39205 | 37350 ft | 492 kts | 52° |
| 2026-04-21 21:20 | 43.58856 | -68.91858 | 37346 ft | 495 kts | 53° |
| 2026-04-21 21:20 | 43.80316 | -68.43373 | 37345 ft | 498 kts | 54° |
| 2026-04-21 21:21 | 44.01080 | -67.95673 | 37350 ft | 501 kts | 56° |
| 2026-04-21 21:21 | 44.22184 | -67.46361 | 37327 ft | 503 kts | 57° |
| 2026-04-21 21:22 | 44.43970 | -66.96341 | 37321 ft | 500 kts | 49° |
| 2026-04-21 21:22 | 44.71393 | -66.51914 | 37316 ft | 501 kts | 47° |
| 2026-04-21 21:23 | 44.98809 | -66.06792 | 37306 ft | 502 kts | 49° |
| 2026-04-21 21:23 | 45.25648 | -65.61910 | 37309 ft | 505 kts | 49° |
| 2026-04-21 21:24 | 45.51780 | -65.17514 | 37297 ft | 508 kts | 51° |
| 2026-04-21 21:24 | 45.78871 | -64.70720 | 37294 ft | 514 kts | 52° |
| 2026-04-21 21:25 | 46.06111 | -64.22870 | 37300 ft | 514 kts | 52° |
| 2026-04-21 21:25 | 46.32680 | -63.75402 | 37328 ft | 520 kts | 54° |
| 2026-04-21 21:26 | 46.59184 | -63.27229 | 37346 ft | 521 kts | 54° |
| 2026-04-21 21:26 | 46.85678 | -62.78213 | 37350 ft | 524 kts | 56° |
| 2026-04-21 21:27 | 47.12374 | -62.27933 | 37338 ft | 526 kts | 57° |
| 2026-04-21 21:27 | 47.37851 | -61.79089 | 37333 ft | 530 kts | 58° |
| 2026-04-21 21:28 | 47.63875 | -61.28261 | 37334 ft | 530 kts | 58° |
| 2026-04-21 21:29 | 48.02401 | -60.51246 | 37336 ft | 536 kts | 60° |
| 2026-04-21 21:29 | 48.28023 | -59.98795 | 37324 ft | 542 kts | 62° |
| 2026-04-21 21:30 | 48.53600 | -59.45387 | 37323 ft | 541 kts | 62° |